Time;durP1;ratioP1;P1;durP2;ratioP2;P2;SDS_P1;SDS_P2;PMS_P1;PMS_P2;Temp;Humidity;BMP_temperature;BMP_pressure;BME280_temperature;BME280_humidity;BME280_pressure;Samples;Min_cycle;Max_cycle;Signal;HPM_P1;HPM_P2
2022/08/20 00:01:38;;;;;;;6.93;2.87;;;20.60;94.90;;;;;;5012601;28;20485;-50
2022/08/20 00:04:05;;;;;;;4.97;3.37;;;20.60;95.10;;;;;;5029041;28;20494;-50
2022/08/20 00:06:32;;;;;;;6.37;3.10;;;20.60;95.00;;;;;;5027209;28;20859;-51
2022/08/20 00:08:59;;;;;;;3.57;3.03;;;20.60;95.20;;;;;;5020417;28;20971;-50
2022/08/20 00:11:27;;;;;;;3.30;3.00;;;20.60;94.80;;;;;;5015217;28;20487;-50
2022/08/20 00:13:57;;;;;;;3.83;2.87;;;20.70;94.80;;;;;;5032741;28;20838;-50
2022/08/20 00:16:27;;;;;;;5.13;3.23;;;20.70;94.90;;;;;;5025434;28;20486;-50
2022/08/20 00:18:55;;;;;;;3.10;2.80;;;20.70;94.90;;;;;;5030027;28;20479;-50
2022/08/20 00:21:24;;;;;;;4.10;3.47;;;20.60;94.90;;;;;;5018223;28;20480;-50
2022/08/20 00:23:52;;;;;;;6.50;3.23;;;20.60;95.30;;;;;;5016177;28;21101;-51
2022/08/20 00:26:20;;;;;;;3.90;3.33;;;20.60;95.60;;;;;;5017371;28;20495;-50
2022/08/20 00:28:47;;;;;;;4.77;3.80;;;20.60;95.80;;;;;;5015393;28;20488;-50
2022/08/20 00:31:16;;;;;;;6.00;3.70;;;20.50;96.20;;;;;;5021387;28;20515;-50
2022/08/20 00:33:44;;;;;;;5.83;3.57;;;20.50;96.40;;;;;;5019642;28;21635;-50
2022/08/20 00:36:12;;;;;;;4.00;3.60;;;20.40;96.80;;;;;;5012729;28;20660;-50
2022/08/20 00:38:40;;;;;;;5.77;4.07;;;20.40;96.70;;;;;;5005502;28;20479;-50
2022/08/20 00:41:10;;;;;;;9.73;3.90;;;20.50;96.10;;;;;;5015393;28;20480;-50
2022/08/20 00:43:41;;;;;;;3.13;2.83;;;20.60;95.60;;;;;;5025434;28;21225;-50
2022/08/20 00:46:11;;;;;;;5.00;3.13;;;20.70;95.40;;;;;;5028840;28;20479;-50
2022/08/20 00:48:41;;;;;;;4.00;3.57;;;20.60;95.40;;;;;;5016262;28;20491;-50
2022/08/20 00:51:17;;;;;;;4.87;3.80;;;20.60;95.80;;;;;;5005939;28;20480;-50
2022/08/20 00:53:44;;;;;;;3.73;3.43;;;20.50;95.90;;;;;;5028617;28;20521;-50
2022/08/20 00:56:12;;;;;;;5.77;3.90;;;20.20;96.70;;;;;;5012402;28;20482;-49
2022/08/20 00:58:40;;;;;;;5.13;4.00;;;20.20;97.00;;;;;;5026591;28;21007;-50
2022/08/20 01:01:08;;;;;;;5.53;4.03;;;20.00;97.20;;;;;;5018688;28;20481;-50
2022/08/20 01:03:36;;;;;;;3.60;3.23;;;20.00;97.30;;;;;;5018886;28;20978;-50
2022/08/20 01:06:03;;;;;;;4.97;3.87;;;19.90;97.60;;;;;;5025178;28;20482;-50
2022/08/20 01:08:31;;;;;;;4.67;4.10;;;20.00;97.30;;;;;;5025384;28;20482;-50
2022/08/20 01:11:08;;;;;;;5.43;3.60;;;20.10;97.00;;;;;;5019682;28;20472;-49
2022/08/20 01:13:38;;;;;;;3.60;2.90;;;20.10;96.80;;;;;;4999648;28;20487;-50
2022/08/20 01:16:14;;;;;;;4.60;3.27;;;20.20;96.20;;;;;;5012021;28;20482;-49
2022/08/20 01:18:41;;;;;;;10.47;4.20;;;20.30;96.40;;;;;;5023955;28;20506;-50
2022/08/20 01:21:08;;;;;;;6.53;3.83;;;20.30;96.20;;;;;;5018075;28;20476;-50
2022/08/20 01:23:42;;;;;;;7.90;3.83;;;20.30;96.00;;;;;;5014105;28;20479;-50
2022/08/20 01:26:13;;;;;;;4.67;3.43;;;20.30;95.90;;;;;;5014364;28;20476;-49
2022/08/20 01:28:43;;;;;;;6.10;4.63;;;20.20;96.60;;;;;;5019450;28;20491;-49
2022/08/20 01:31:13;;;;;;;6.37;3.80;;;20.10;97.30;;;;;;5024169;28;20472;-49
2022/08/20 01:33:40;;;;;;;6.60;4.47;;;20.10;97.70;;;;;;5016856;28;20873;-49
2022/08/20 01:36:09;;;;;;;4.90;4.40;;;19.90;98.30;;;;;;5005526;28;20495;-49
2022/08/20 01:38:36;;;;;;;6.10;5.50;;;19.90;98.40;;;;;;5022824;28;20487;-50
2022/08/20 01:41:29;;;;;;;6.07;5.00;;;19.90;98.20;;;;;;5022811;28;20517;-52
2022/08/20 01:43:58;;;;;;;6.10;4.40;;;19.90;98.40;;;;;;5018469;28;20898;-49
2022/08/20 01:46:27;;;;;;;10.40;5.43;;;19.80;98.40;;;;;;5024763;28;20486;-49
2022/08/20 01:48:56;;;;;;;6.60;4.30;;;19.80;98.50;;;;;;5030520;28;20562;-49
2022/08/20 01:51:26;;;;;;;6.40;4.80;;;19.80;98.80;;;;;;5031459;28;20491;-49
2022/08/20 01:53:55;;;;;;;5.83;5.23;;;19.60;99.30;;;;;;5031921;28;20510;-49
2022/08/20 01:56:27;;;;;;;7.20;5.53;;;19.60;99.50;;;;;;5021307;28;20488;-49
2022/08/20 01:58:56;;;;;;;5.47;4.53;;;19.60;99.70;;;;;;5031084;28;20488;-49
2022/08/20 02:01:27;;;;;;;6.03;5.20;;;19.60;99.60;;;;;;5033988;28;20949;-49
2022/08/20 02:03:55;;;;;;;8.37;6.10;;;19.50;99.90;;;;;;5031154;28;20494;-49
2022/08/20 02:06:25;;;;;;;7.30;6.17;;;19.50;99.90;;;;;;5032706;28;20851;-49
2022/08/20 02:08:54;;;;;;;4.23;3.83;;;19.70;99.50;;;;;;5036844;28;20510;-50
2022/08/20 02:11:21;;;;;;;5.77;4.53;;;19.80;99.40;;;;;;5031077;28;20494;-49
2022/08/20 02:13:51;;;;;;;7.13;4.73;;;19.90;99.50;;;;;;5032901;28;21296;-49
2022/08/20 02:16:20;;;;;;;5.17;4.60;;;19.80;99.60;;;;;;5035703;28;20562;-49
2022/08/20 02:18:48;;;;;;;5.63;4.87;;;18.60;98.60;;;;;;5032532;28;20570;-50
2022/08/20 02:21:16;;;;;;;4.70;3.90;;;20.10;99.00;;;;;;5031656;28;21003;-49
2022/08/20 02:23:42;;;;;;;6.33;5.70;;;20.10;99.20;;;;;;5031080;28;20517;-49
2022/08/20 02:26:09;;;;;;;5.83;4.60;;;20.10;99.40;;;;;;5032832;28;20483;-50
2022/08/20 02:28:36;;;;;;;7.50;5.13;;;20.00;99.60;;;;;;5030274;28;20484;-49
2022/08/20 02:31:07;;;;;;;7.00;5.40;;;20.00;99.50;;;;;;5033530;28;20474;-50
2022/08/20 02:33:34;;;;;;;6.43;5.50;;;20.00;99.70;;;;;;5021787;28;20468;-50
2022/08/20 02:36:01;;;;;;;6.70;4.67;;;19.90;99.90;;;;;;5033018;28;20482;-50
2022/08/20 02:38:28;;;;;;;7.20;6.17;;;19.90;99.90;;;;;;5031563;28;20582;-49
2022/08/20 02:40:55;;;;;;;7.07;5.77;;;19.90;99.90;;;;;;5030573;28;21225;-49
2022/08/20 02:43:22;;;;;;;8.63;5.27;;;19.90;99.90;;;;;;5031210;28;20773;-50
2022/08/20 02:45:48;;;;;;;6.00;5.40;;;19.90;99.90;;;;;;5037216;28;20872;-50
2022/08/20 02:48:19;;;;;;;10.47;6.73;;;20.00;99.90;;;;;;5033559;28;20483;-50
2022/08/20 02:50:47;;;;;;;6.80;5.07;;;20.00;99.90;;;;;;5034152;28;20709;-49
2022/08/20 02:53:15;;;;;;;4.37;3.80;;;20.20;99.60;;;;;;5033402;28;20844;-50
2022/08/20 02:55:42;;;;;;;8.67;5.40;;;20.20;99.40;;;;;;5029479;28;20926;-50
2022/08/20 02:58:09;;;;;;;7.73;4.70;;;20.30;99.60;;;;;;5029396;28;21094;-49
2022/08/20 03:00:36;;;;;;;9.40;5.90;;;20.30;99.50;;;;;;5028419;28;20472;-50
2022/08/20 03:03:03;;;;;;;4.97;4.47;;;20.30;99.60;;;;;;5022173;28;20479;-49
2022/08/20 03:05:31;;;;;;;7.10;4.80;;;20.40;99.30;;;;;;5027025;28;21206;-50
2022/08/20 03:07:58;;;;;;;6.77;5.63;;;20.50;99.50;;;;;;5029332;28;21068;-49
2022/08/20 03:10:27;;;;;;;7.03;6.20;;;20.40;99.70;;;;;;5030949;28;20953;-50
2022/08/20 03:12:53;;;;;;;10.03;5.47;;;20.50;99.70;;;;;;5028419;28;20514;-50
2022/08/20 03:15:20;;;;;;;6.23;5.63;;;21.60;99.80;;;;;;5037912;28;20585;-49
2022/08/20 03:17:47;;;;;;;11.70;6.30;;;20.60;99.60;;;;;;5020559;28;21041;-50
2022/08/20 03:20:15;;;;;;;7.70;5.03;;;20.70;99.00;;;;;;5041449;28;20486;-50
2022/08/20 03:22:43;;;;;;;7.50;5.17;;;20.80;98.80;;;;;;5033273;28;20497;-49
2022/08/20 03:25:11;;;;;;;5.30;4.43;;;20.90;99.10;;;;;;5029321;28;20479;-50
2022/08/20 03:27:38;;;;;;;7.87;4.97;;;20.90;99.10;;;;;;5031043;28;20503;-50
2022/08/20 03:30:07;;;;;;;9.83;5.70;;;20.80;99.30;;;;;;5032853;28;20487;-50
2022/08/20 03:32:34;;;;;;;7.90;7.13;;;20.70;99.50;;;;;;5029714;28;20490;-50
2022/08/20 03:35:00;;;;;;;7.60;5.83;;;20.70;99.60;;;;;;5023621;28;20487;-49
2022/08/20 03:37:30;;;;;;;8.00;6.57;;;20.60;99.90;;;;;;5024846;28;20493;-50
2022/08/20 03:39:58;;;;;;;6.50;4.83;;;20.60;99.90;;;;;;5042318;28;20499;-50
2022/08/20 03:42:25;;;;;;;7.13;6.43;;;20.50;99.90;;;;;;5029949;28;20486;-51
2022/08/20 03:44:52;;;;;;;5.60;4.90;;;20.40;99.90;;;;;;5032047;28;20495;-50
2022/08/20 03:47:18;;;;;;;5.17;4.70;;;20.40;99.90;;;;;;5022752;28;21079;-51
2022/08/20 03:49:45;;;;;;;7.77;5.90;;;20.50;99.90;;;;;;5030215;28;20494;-50
2022/08/20 03:52:13;;;;;;;5.70;5.07;;;20.50;99.90;;;;;;5027614;28;20476;-50
2022/08/20 03:54:41;;;;;;;7.83;5.57;;;20.50;99.90;;;;;;5029171;28;20723;-50
2022/08/20 03:57:13;;;;;;;7.07;4.57;;;20.50;99.90;;;;;;5034811;28;21070;-50
2022/08/20 03:59:40;;;;;;;6.60;4.83;;;20.40;99.90;;;;;;5036005;28;20510;-50
2022/08/20 04:02:07;;;;;;;6.20;5.60;;;20.40;99.90;;;;;;5036277;28;20487;-50
2022/08/20 04:04:33;;;;;;;7.20;6.50;;;20.40;99.90;;;;;;5026800;28;20492;-50
2022/08/20 04:07:00;;;;;;;7.53;5.00;;;20.40;99.90;;;;;;5030951;28;20486;-51
2022/08/20 04:09:27;;;;;;;5.10;4.60;;;20.30;99.90;;;;;;5033660;28;20616;-50
2022/08/20 04:11:59;;;;;;;7.87;5.80;;;20.30;99.90;;;;;;5035465;28;20479;-50
2022/08/20 04:14:27;;;;;;;7.17;6.47;;;20.40;99.90;;;;;;5022852;28;20503;-51
2022/08/20 04:16:54;;;;;;;10.00;5.03;;;20.30;99.90;;;;;;5028565;28;20981;-51
2022/08/20 04:19:21;;;;;;;8.07;6.03;;;20.30;99.90;;;;;;5036093;28;20467;-50
2022/08/20 04:21:47;;;;;;;6.53;5.13;;;20.40;99.90;;;;;;5014342;28;20482;-50
2022/08/20 04:24:15;;;;;;;4.67;4.17;;;20.50;99.90;;;;;;5037809;28;20487;-50
2022/08/20 04:26:42;;;;;;;6.70;5.90;;;20.40;99.90;;;;;;5032513;28;20487;-51
2022/08/20 04:29:08;;;;;;;7.90;5.07;;;20.40;99.90;;;;;;5019561;28;20566;-52
2022/08/20 04:31:36;;;;;;;4.70;4.30;;;20.30;99.90;;;;;;5037714;28;20467;-52
2022/08/20 04:34:06;;;;;;;5.23;4.53;;;20.30;99.90;;;;;;5029764;28;20488;-51
2022/08/20 04:36:33;;;;;;;7.23;6.37;;;20.40;99.90;;;;;;5033913;28;20984;-52
2022/08/20 04:39:00;;;;;;;7.30;4.70;;;20.40;99.90;;;;;;5034217;28;20590;-51
2022/08/20 04:41:26;;;;;;;7.77;6.97;;;20.40;99.90;;;;;;5035315;28;21067;-52
2022/08/20 04:43:55;;;;;;;7.07;5.10;;;20.40;99.90;;;;;;5034822;28;20472;-52
2022/08/20 04:46:24;;;;;;;5.80;4.40;;;20.40;99.90;;;;;;5032837;28;20249;-51
2022/08/20 04:48:52;;;;;;;6.07;4.93;;;20.30;99.90;;;;;;5029563;28;21029;-52
2022/08/20 04:51:19;;;;;;;6.13;5.50;;;20.20;99.90;;;;;;5034688;28;20494;-52
2022/08/20 04:53:46;;;;;;;7.23;5.13;;;20.20;99.90;;;;;;5021938;28;20704;-53
2022/08/20 04:56:13;;;;;;;5.57;4.40;;;20.10;99.90;;;;;;5048249;28;20980;-53
2022/08/20 04:58:40;;;;;;;5.80;5.03;;;20.20;99.90;;;;;;5029299;28;20804;-54
2022/08/20 05:01:09;;;;;;;7.67;4.80;;;20.00;99.90;;;;;;5016092;28;20563;-54
2022/08/20 05:03:37;;;;;;;8.20;6.00;;;20.00;99.90;;;;;;5026315;28;20839;-54
2022/08/20 05:06:07;;;;;;;7.80;5.90;;;20.00;99.90;;;;;;5031944;28;20944;-55
2022/08/20 05:08:35;;;;;;;7.50;4.60;;;20.10;99.90;;;;;;5028820;28;21329;-54
2022/08/20 05:11:02;;;;;;;5.93;4.10;;;20.10;99.90;;;;;;5033290;28;20541;-52
2022/08/20 05:13:29;;;;;;;5.30;4.40;;;20.00;99.90;;;;;;5030497;28;20482;-52
2022/08/20 05:16:00;;;;;;;5.83;3.87;;;20.00;99.90;;;;;;5033598;28;20562;-52
2022/08/20 05:18:27;;;;;;;5.90;4.10;;;20.00;99.90;;;;;;5027913;28;20822;-51
2022/08/20 05:21:03;;;;;;;6.83;4.57;;;20.00;99.90;;;;;;5023453;28;20483;-52
2022/08/20 05:23:32;;;;;;;9.13;5.17;;;20.10;99.90;;;;;;5032926;28;20490;-52
2022/08/20 05:25:59;;;;;;;7.43;4.20;;;20.10;99.90;;;;;;5031973;28;20477;-52
2022/08/20 05:28:31;;;;;;;9.20;5.37;;;20.10;99.90;;;;;;5033678;28;20479;-52
2022/08/20 05:30:59;;;;;;;10.50;5.10;;;20.20;99.90;;;;;;5033636;28;20475;-52
2022/08/20 05:33:27;;;;;;;7.77;4.57;;;20.20;99.90;;;;;;5032571;28;20514;-52
2022/08/20 05:35:54;;;;;;;6.80;5.37;;;20.20;99.90;;;;;;5031788;28;20488;-52
2022/08/20 05:38:24;;;;;;;6.83;4.93;;;20.30;99.90;;;;;;5033929;28;20766;-52
2022/08/20 05:40:52;;;;;;;8.10;4.83;;;20.30;99.90;;;;;;5032549;28;20507;-52
2022/08/20 05:43:20;;;;;;;6.90;5.00;;;20.40;99.90;;;;;;5034750;28;20496;-53
2022/08/20 05:45:51;;;;;;;5.73;4.40;;;20.40;99.90;;;;;;5026292;28;20498;-52
2022/08/20 05:48:20;;;;;;;7.70;6.03;;;20.40;99.90;;;;;;5022613;28;20829;-52
2022/08/20 05:50:49;;;;;;;5.30;4.80;;;20.40;99.90;;;;;;5033297;28;20531;-52
2022/08/20 05:53:16;;;;;;;7.47;5.60;;;20.40;99.90;;;;;;5031742;28;20491;-51
2022/08/20 05:55:44;;;;;;;8.30;4.80;;;20.40;99.90;;;;;;5034332;28;20483;-51
2022/08/20 05:58:19;;;;;;;5.50;5.00;;;20.40;99.90;;;;;;5033415;28;20472;-51
2022/08/20 06:00:47;;;;;;;5.50;4.73;;;20.50;99.90;;;;;;5027319;28;20487;-51
2022/08/20 06:05:58;;;;;;;12.00;6.70;;;20.60;99.90;;;;;;5029360;28;20730;-51
2022/08/20 06:08:25;;;;;;;13.50;5.97;;;20.70;99.90;;;;;;5032898;28;20495;-50
2022/08/20 06:10:52;;;;;;;6.57;5.90;;;20.70;99.90;;;;;;5032970;28;21083;-51
2022/08/20 06:13:20;;;;;;;6.93;5.73;;;20.80;99.90;;;;;;5032278;28;20482;-51
2022/08/20 06:15:47;;;;;;;6.87;6.30;;;20.90;99.90;;;;;;5031496;28;21054;-51
2022/08/20 06:18:13;;;;;;;6.57;5.90;;;20.80;99.90;;;;;;5032298;28;20498;-51
2022/08/20 06:20:41;;;;;;;17.03;6.50;;;;;;;;;;5035186;28;21007;-50
2022/08/20 06:23:08;;;;;;;6.90;6.20;;;21.00;99.90;;;;;;5029873;28;20479;-51
2022/08/20 06:25:35;;;;;;;12.13;7.30;;;21.00;99.90;;;;;;5029326;28;20507;-51
2022/08/20 06:28:02;;;;;;;7.27;6.40;;;21.00;99.90;;;;;;5032022;28;20897;-52
2022/08/20 06:30:31;;;;;;;6.47;5.87;;;20.80;99.90;;;;;;5033158;28;20475;-50
2022/08/20 06:32:58;;;;;;;8.63;6.40;;;20.90;99.90;;;;;;5035347;28;20484;-52
2022/08/20 06:35:25;;;;;;;10.80;6.50;;;20.90;99.90;;;;;;5031930;28;21043;-51
2022/08/20 06:37:52;;;;;;;13.20;6.40;;;21.00;99.90;;;;;;5025073;28;20491;-51
2022/08/20 06:40:21;;;;;;;6.37;5.77;;;21.10;99.90;;;;;;5033041;28;20582;-51
2022/08/20 06:42:48;;;;;;;6.80;5.70;;;21.20;99.90;;;;;;5019056;28;20487;-53
2022/08/20 06:45:18;;;;;;;6.57;5.87;;;21.20;99.90;;;;;;5030370;28;20924;-52
2022/08/20 06:47:47;;;;;;;8.63;5.40;;;21.20;99.90;;;;;;5035553;28;20475;-57
2022/08/20 06:50:16;;;;;;;5.17;4.67;;;21.40;99.90;;;;;;5024141;28;20483;-52
2022/08/20 06:52:46;;;;;;;9.40;5.40;;;21.30;99.90;;;;;;5030753;28;20483;-51
2022/08/20 06:55:14;;;;;;;6.00;4.57;;;21.50;99.90;;;;;;5026549;28;20931;-52
2022/08/20 06:57:42;;;;;;;7.63;5.00;;;21.60;99.90;;;;;;5028912;28;20521;-51
2022/08/20 07:00:13;;;;;;;6.07;4.23;;;21.70;99.90;;;;;;5029619;28;20475;-52
2022/08/20 07:02:40;;;;;;;4.13;3.73;;;21.70;99.90;;;;;;5033458;28;20484;-52
2022/08/20 07:05:09;;;;;;;5.47;3.97;;;22.00;99.90;;;;;;5023567;28;21058;-52
2022/08/20 07:07:37;;;;;;;5.60;3.90;;;22.20;99.90;;;;;;5030768;28;20483;-52
2022/08/20 07:10:06;;;;;;;3.40;3.20;;;22.40;99.90;;;;;;5028696;28;20498;-52
2022/08/20 07:12:35;;;;;;;7.40;4.23;;;22.50;99.90;;;;;;5028267;28;20480;-52
2022/08/20 07:15:02;;;;;;;4.50;3.20;;;22.60;99.90;;;;;;5029606;28;20581;-52
2022/08/20 07:17:29;;;;;;;3.30;3.10;;;22.60;99.90;;;;;;5028309;28;20482;-50
2022/08/20 07:19:56;;;;;;;3.83;3.37;;;22.60;99.10;;;;;;5028715;28;20499;-51
2022/08/20 07:22:24;;;;;;;3.47;3.17;;;22.60;99.10;;;;;;5021727;28;20472;-53
2022/08/20 07:24:51;;;;;;;4.80;3.20;;;22.60;99.00;;;;;;5049047;28;20979;-54
2022/08/20 07:27:21;;;;;;;4.37;3.30;;;22.50;98.90;;;;;;5038536;28;20482;-52
2022/08/20 07:32:35;;;;;;;6.00;3.40;;;22.80;98.90;;;;;;5010349;28;20487;-52
2022/08/20 07:35:04;;;;;;;3.77;3.47;;;22.80;98.70;;;;;;5034587;28;20665;-52
2022/08/20 07:37:32;;;;;;;3.77;3.47;;;22.80;98.80;;;;;;5035193;28;20476;-52
2022/08/20 07:39:58;;;;;;;3.90;3.50;;;22.70;98.30;;;;;;5035065;28;20494;-52
2022/08/20 07:42:25;;;;;;;4.00;2.90;;;22.70;98.30;;;;;;5033774;28;20487;-52
2022/08/20 07:44:52;;;;;;;4.00;3.23;;;22.60;98.10;;;;;;5036460;28;20476;-52
2022/08/20 07:47:19;;;;;;;3.50;3.20;;;22.50;98.20;;;;;;5032941;28;20558;-52
2022/08/20 07:49:46;;;;;;;4.40;3.37;;;22.50;98.70;;;;;;5035988;28;20472;-52
2022/08/20 07:52:13;;;;;;;8.73;3.70;;;22.50;99.10;;;;;;5036383;28;20913;-52
2022/08/20 07:54:41;;;;;;;3.90;3.40;;;22.40;98.50;;;;;;5035939;28;21153;-52
2022/08/20 07:57:10;;;;;;;4.20;3.00;;;22.30;98.00;;;;;;5035545;28;20483;-53
2022/08/20 07:59:38;;;;;;;2.73;2.53;;;22.20;97.40;;;;;;5036309;28;20584;-51
2022/08/20 08:02:05;;;;;;;3.37;2.57;;;22.10;97.40;;;;;;5037029;28;22094;-52
2022/08/20 08:04:31;;;;;;;2.90;2.40;;;22.10;97.50;;;;;;5033679;28;20474;-52
2022/08/20 08:06:59;;;;;;;9.53;2.73;;;22.10;97.40;;;;;;5032365;28;20476;-52
2022/08/20 08:09:27;;;;;;;3.13;2.83;;;22.10;97.60;;;;;;5033134;28;20633;-53
2022/08/20 08:12:00;;;;;;;2.50;2.30;;;22.00;96.90;;;;;;5039531;28;20475;-52
2022/08/20 08:14:30;;;;;;;4.00;2.60;;;22.00;97.20;;;;;;5037441;28;20519;-52
2022/08/20 08:17:03;;;;;;;2.47;2.20;;;22.00;97.30;;;;;;5033047;28;20483;-53
2022/08/20 08:19:37;;;;;;;4.00;2.50;;;22.00;97.20;;;;;;5032688;28;21073;-52
2022/08/20 08:22:05;;;;;;;2.37;1.80;;;22.00;96.80;;;;;;5030947;28;20498;-53
2022/08/20 08:24:32;;;;;;;4.10;3.33;;;22.00;97.20;;;;;;5037766;28;20495;-52
2022/08/20 08:27:00;;;;;;;8.70;2.17;;;22.00;97.10;;;;;;5049085;28;20480;-52
2022/08/20 08:29:28;;;;;;;2.57;2.27;;;22.10;97.30;;;;;;5022481;28;20468;-53
2022/08/20 08:31:54;;;;;;;3.90;2.00;;;22.10;96.20;;;;;;5033220;28;20460;-53
2022/08/20 08:34:24;;;;;;;4.13;2.27;;;22.20;96.70;;;;;;5038249;28;20483;-52
2022/08/20 08:36:51;;;;;;;2.03;1.83;;;22.50;96.20;;;;;;5035432;28;20594;-53
2022/08/20 08:39:17;;;;;;;4.63;2.37;;;22.90;96.30;;;;;;5038205;28;20483;-53
2022/08/20 08:41:48;;;;;;;2.67;2.00;;;23.30;95.40;;;;;;5038668;28;20495;-52
2022/08/20 08:44:21;;;;;;;2.10;1.53;;;23.40;93.90;;;;;;5034825;28;20559;-53
2022/08/20 08:46:51;;;;;;;2.97;1.50;;;23.70;91.50;;;;;;5027966;28;20490;-54
2022/08/20 08:49:23;;;;;;;4.90;1.80;;;23.80;92.30;;;;;;5037961;28;20490;-54
2022/08/20 08:51:54;;;;;;;2.97;1.50;;;24.00;91.70;;;;;;5035442;28;20575;-53
2022/08/20 08:54:24;;;;;;;3.47;1.60;;;24.20;90.40;;;;;;5036207;28;21005;-52
2022/08/20 08:56:52;;;;;;;3.17;1.30;;;24.30;90.10;;;;;;5033151;28;20507;-52
2022/08/20 08:59:22;;;;;;;2.90;1.40;;;24.40;90.20;;;;;;5034408;28;20713;-54
2022/08/20 09:01:52;;;;;;;2.00;1.37;;;24.40;90.40;;;;;;5031750;28;20515;-51
2022/08/20 09:04:20;;;;;;;3.23;1.63;;;24.70;89.80;;;;;;5027884;28;20492;-51
2022/08/20 09:06:48;;;;;;;2.23;1.47;;;24.90;88.00;;;;;;5033014;28;20570;-54
2022/08/20 09:09:19;;;;;;;2.37;1.73;;;25.20;87.70;;;;;;5035623;28;20487;-52
2022/08/20 09:11:49;;;;;;;3.03;1.10;;;25.30;87.70;;;;;;5034326;28;21018;-53
2022/08/20 09:14:16;;;;;;;6.73;1.70;;;25.50;88.00;;;;;;5033886;28;20922;-55
2022/08/20 09:16:44;;;;;;;2.93;1.20;;;25.80;86.40;;;;;;5032392;28;20903;-54
2022/08/20 09:19:11;;;;;;;3.03;1.50;;;25.90;86.20;;;;;;5036350;28;20488;-55
2022/08/20 09:21:38;;;;;;;2.00;1.20;;;25.90;84.60;;;;;;5037394;28;20999;-53
2022/08/20 09:24:05;;;;;;;2.77;1.00;;;25.80;82.70;;;;;;5034832;28;20891;-53
2022/08/20 09:26:32;;;;;;;2.03;1.10;;;25.70;82.50;;;;;;5029625;28;20494;-52
2022/08/20 09:28:58;;;;;;;1.70;1.10;;;25.60;83.50;;;;;;5033200;28;20486;-53
2022/08/20 09:31:25;;;;;;;2.83;1.50;;;25.80;83.10;;;;;;5034451;28;20467;-53
2022/08/20 09:33:53;;;;;;;2.43;1.10;;;25.90;81.50;;;;;;5033879;28;20483;-55
2022/08/20 09:36:20;;;;;;;8.87;2.47;;;25.80;82.50;;;;;;5033786;28;20971;-57
2022/08/20 09:38:47;;;;;;;2.00;1.03;;;25.90;83.60;;;;;;5033206;28;20758;-53
2022/08/20 09:41:13;;;;;;;2.70;1.20;;;25.90;81.20;;;;;;5033479;28;20845;-55
2022/08/20 09:43:40;;;;;;;1.80;1.00;;;26.00;80.00;;;;;;5032770;28;21026;-55
2022/08/20 09:46:07;;;;;;;4.00;1.23;;;26.10;79.20;;;;;;5031457;28;20476;-56
2022/08/20 09:48:34;;;;;;;1.80;1.07;;;26.00;78.00;;;;;;5032894;28;20468;-57
2022/08/20 09:51:02;;;;;;;3.20;1.30;;;25.90;78.50;;;;;;5035037;28;20488;-54
2022/08/20 09:53:30;;;;;;;3.23;1.63;;;25.90;78.70;;;;;;5033697;28;20842;-53
2022/08/20 09:55:58;;;;;;;2.50;1.30;;;26.10;78.00;;;;;;5034205;28;21075;-53
2022/08/20 09:58:33;;;;;;;3.30;1.37;;;26.00;76.00;;;;;;5031868;28;21336;-54
2022/08/20 10:01:03;;;;;;;2.10;1.10;;;26.00;74.50;;;;;;5034185;28;20479;-53
2022/08/20 10:03:30;;;;;;;3.03;1.20;;;26.00;74.60;;;;;;5034693;28;20861;-55
2022/08/20 10:05:56;;;;;;;3.83;1.17;;;26.00;75.40;;;;;;5033225;28;20488;-54
2022/08/20 10:08:24;;;;;;;5.80;1.30;;;26.10;74.20;;;;;;5031263;28;20476;-53
2022/08/20 10:10:51;;;;;;;2.47;1.30;;;26.10;73.60;;;;;;5034470;28;20895;-53
2022/08/20 10:13:18;;;;;;;1.90;0.97;;;26.10;74.30;;;;;;5034443;28;20464;-52
2022/08/20 10:15:44;;;;;;;3.30;1.07;;;26.00;72.70;;;;;;5032514;28;20495;-53
2022/08/20 10:18:11;;;;;;;3.30;1.07;;;26.20;74.20;;;;;;5029050;28;20794;-53
2022/08/20 10:20:38;;;;;;;2.03;1.20;;;26.40;73.50;;;;;;5033555;28;20468;-54
2022/08/20 10:23:05;;;;;;;4.87;1.43;;;26.50;72.70;;;;;;5034181;28;20450;-52
2022/08/20 10:25:33;;;;;;;1.83;1.03;;;26.80;71.80;;;;;;5034782;28;20953;-53
2022/08/20 10:28:00;;;;;;;7.23;1.90;;;26.90;70.00;;;;;;5033201;28;20491;-53
2022/08/20 10:30:27;;;;;;;3.80;1.30;;;26.90;68.90;;;;;;5022686;28;21219;-53
2022/08/20 10:32:53;;;;;;;2.30;1.20;;;26.90;70.10;;;;;;5042926;28;20490;-54
2022/08/20 10:35:20;;;;;;;3.60;1.03;;;27.00;70.00;;;;;;5029636;28;20859;-53
2022/08/20 10:37:47;;;;;;;1.90;1.00;;;26.80;67.30;;;;;;5028584;28;20484;-50
2022/08/20 10:40:14;;;;;;;2.63;1.10;;;26.80;65.00;;;;;;5030394;28;20483;-54
2022/08/20 10:42:42;;;;;;;7.43;1.40;;;26.80;65.10;;;;;;5030446;28;20476;-53
2022/08/20 10:45:10;;;;;;;4.20;1.47;;;26.70;61.50;;;;;;5033795;28;20503;-53
2022/08/20 10:47:37;;;;;;;8.00;1.40;;;26.80;63.50;;;;;;5022337;28;20561;-53
2022/08/20 10:50:07;;;;;;;3.70;1.40;;;27.00;64.10;;;;;;5026952;28;20494;-53
2022/08/20 10:52:34;;;;;;;3.90;1.77;;;27.30;64.10;;;;;;5027799;28;20476;-52
2022/08/20 10:55:03;;;;;;;3.10;1.47;;;27.60;62.00;;;;;;5035116;28;20915;-52
2022/08/20 10:57:32;;;;;;;2.30;2.07;;;27.70;61.20;;;;;;5018450;28;20490;-52
2022/08/20 11:00:00;;;;;;;2.63;1.70;;;27.80;62.40;;;;;;5026848;28;20922;-55
2022/08/20 11:02:28;;;;;;;3.17;2.17;;;28.00;59.20;;;;;;5040432;28;20488;-54
2022/08/20 11:04:55;;;;;;;3.07;2.47;;;27.90;58.70;;;;;;5032444;28;20917;-55
2022/08/20 11:07:26;;;;;;;2.50;1.80;;;27.80;58.60;;;;;;5012784;28;20491;-55
2022/08/20 11:09:53;;;;;;;3.13;2.00;;;27.80;60.70;;;;;;5030741;28;21042;-56
2022/08/20 11:12:22;;;;;;;3.23;1.90;;;27.60;58.60;;;;;;5033598;28;20473;-55
2022/08/20 11:14:50;;;;;;;7.30;2.17;;;27.40;59.80;;;;;;5020121;28;20997;-54
2022/08/20 11:17:21;;;;;;;3.60;1.73;;;27.40;60.70;;;;;;5031842;28;20446;-54
2022/08/20 11:19:49;;;;;;;5.13;2.57;;;27.40;62.10;;;;;;5014957;28;21354;-56
2022/08/20 11:22:16;;;;;;;2.40;2.20;;;27.50;64.00;;;;;;5032796;28;20468;-55
2022/08/20 11:24:42;;;;;;;4.77;2.20;;;27.50;64.90;;;;;;5032157;28;20483;-56
2022/08/20 11:27:10;;;;;;;2.77;2.37;;;27.70;64.10;;;;;;5030031;28;20484;-54
2022/08/20 11:29:38;;;;;;;4.00;2.50;;;27.80;64.40;;;;;;5032852;28;21182;-54
2022/08/20 11:32:06;;;;;;;4.43;2.40;;;27.90;65.20;;;;;;5022650;28;20450;-53
2022/08/20 11:34:37;;;;;;;4.20;2.80;;;28.20;64.90;;;;;;5021627;28;20455;-53
2022/08/20 11:37:04;;;;;;;4.63;2.77;;;28.60;65.20;;;;;;5015780;28;20532;-54
2022/08/20 11:39:30;;;;;;;6.13;2.80;;;28.60;63.80;;;;;;5014775;28;20455;-56
2022/08/20 11:41:57;;;;;;;3.63;1.73;;;28.70;63.40;;;;;;5017360;28;20923;-55
2022/08/20 11:44:24;;;;;;;3.13;1.87;;;28.50;59.80;;;;;;5014490;28;20492;-55
2022/08/20 11:46:51;;;;;;;2.37;1.70;;;28.50;61.00;;;;;;5022307;28;20484;-54
2022/08/20 11:49:17;;;;;;;2.53;1.20;;;28.50;59.20;;;;;;5008282;28;20446;-54
2022/08/20 11:51:45;;;;;;;2.67;2.00;;;28.70;58.00;;;;;;5017930;28;20521;-54
2022/08/20 11:54:12;;;;;;;3.43;1.60;;;28.70;57.00;;;;;;5013957;28;21090;-53
2022/08/20 11:56:39;;;;;;;2.50;2.10;;;28.80;57.70;;;;;;5003514;28;20474;-54
2022/08/20 11:59:05;;;;;;;5.17;1.77;;;28.90;58.20;;;;;;5017653;28;20463;-54
2022/08/20 12:01:32;;;;;;;3.13;2.70;;;28.80;58.60;;;;;;5002548;28;20998;-54
2022/08/20 12:03:59;;;;;;;4.33;2.27;;;28.90;58.70;;;;;;5026853;28;20530;-53
2022/08/20 12:06:25;;;;;;;6.57;2.40;;;29.00;58.70;;;;;;5020100;28;21090;-53
2022/08/20 12:08:53;;;;;;;2.40;2.03;;;28.90;58.20;;;;;;5008369;28;20982;-53
2022/08/20 12:11:20;;;;;;;1.97;1.60;;;28.90;59.40;;;;;;5014445;28;20849;-53
2022/08/20 12:13:47;;;;;;;4.13;1.70;;;28.90;58.40;;;;;;5009058;28;20462;-54
2022/08/20 12:16:15;;;;;;;4.53;1.63;;;28.90;58.20;;;;;;5023096;28;20623;-53
2022/08/20 12:18:41;;;;;;;5.37;1.97;;;29.00;58.40;;;;;;5022774;28;20447;-55
2022/08/20 12:21:08;;;;;;;3.90;1.90;;;28.90;57.40;;;;;;5028369;28;20488;-53
2022/08/20 12:23:35;;;;;;;2.63;2.43;;;29.00;59.40;;;;;;5010330;28;20475;-53
2022/08/20 12:26:03;;;;;;;5.27;2.47;;;29.00;57.00;;;;;;5015447;28;20455;-53
2022/08/20 12:28:30;;;;;;;2.37;1.93;;;28.90;56.80;;;;;;4994598;28;20483;-53
2022/08/20 12:30:58;;;;;;;3.20;2.30;;;28.90;58.70;;;;;;5032420;28;20458;-53
2022/08/20 12:33:25;;;;;;;5.77;1.53;;;29.10;56.20;;;;;;5021176;28;20454;-62
2022/08/20 12:35:52;;;;;;;3.90;2.50;;;29.10;56.60;;;;;;5016125;28;20466;-53
2022/08/20 12:38:19;;;;;;;4.63;1.90;;;29.10;56.90;;;;;;5011203;28;20456;-55
2022/08/20 12:40:45;;;;;;;6.83;2.60;;;29.10;56.10;;;;;;5010455;28;21075;-55
2022/08/20 12:43:13;;;;;;;2.10;1.80;;;29.10;56.90;;;;;;5022315;28;20453;-54
2022/08/20 12:45:40;;;;;;;3.50;2.20;;;29.00;55.90;;;;;;5024062;28;20462;-54
2022/08/20 12:48:10;;;;;;;12.23;3.23;;;29.10;57.80;;;;;;5026270;28;20734;-55
2022/08/20 12:50:38;;;;;;;5.70;2.27;;;29.10;57.90;;;;;;5024334;28;20838;-56
2022/08/20 12:53:05;;;;;;;4.63;2.20;;;29.20;58.50;;;;;;5015132;28;20496;-55
2022/08/20 12:55:32;;;;;;;6.70;2.90;;;29.10;57.90;;;;;;5011869;28;20462;-56